sensor_id;sensor_type;location;lat;lon;timestamp;temperature;humidity
35700;DHT22;21818;51.078;12.108;2024-01-25T00:01:45;14.60;86.10
35700;DHT22;21818;51.078;12.108;2024-01-25T00:04:11;14.60;86.20
35700;DHT22;21818;51.078;12.108;2024-01-25T00:06:36;14.60;86.20
35700;DHT22;21818;51.078;12.108;2024-01-25T00:09:02;14.60;86.30
35700;DHT22;21818;51.078;12.108;2024-01-25T00:11:29;14.60;86.30
35700;DHT22;21818;51.078;12.108;2024-01-25T00:13:57;14.60;86.30
35700;DHT22;21818;51.078;12.108;2024-01-25T00:16:22;14.60;86.30
35700;DHT22;21818;51.078;12.108;2024-01-25T00:18:48;14.60;86.40
35700;DHT22;21818;51.078;12.108;2024-01-25T00:21:13;14.60;86.50
35700;DHT22;21818;51.078;12.108;2024-01-25T00:23:39;14.60;86.40
35700;DHT22;21818;51.078;12.108;2024-01-25T00:26:04;14.60;86.50
35700;DHT22;21818;51.078;12.108;2024-01-25T00:28:30;14.60;86.50
35700;DHT22;21818;51.078;12.108;2024-01-25T00:30:55;14.60;86.60
35700;DHT22;21818;51.078;12.108;2024-01-25T00:33:21;14.60;86.60
35700;DHT22;21818;51.078;12.108;2024-01-25T00:35:47;14.60;86.70
35700;DHT22;21818;51.078;12.108;2024-01-25T00:38:13;14.60;86.70
35700;DHT22;21818;51.078;12.108;2024-01-25T00:40:39;14.60;86.90
35700;DHT22;21818;51.078;12.108;2024-01-25T00:43:05;14.60;86.90
35700;DHT22;21818;51.078;12.108;2024-01-25T00:45:31;14.60;86.90
35700;DHT22;21818;51.078;12.108;2024-01-25T00:47:57;14.60;86.90
35700;DHT22;21818;51.078;12.108;2024-01-25T00:50:23;14.70;87.10
35700;DHT22;21818;51.078;12.108;2024-01-25T00:52:52;14.70;87.20
35700;DHT22;21818;51.078;12.108;2024-01-25T00:55:18;14.70;87.20
35700;DHT22;21818;51.078;12.108;2024-01-25T00:57:44;14.70;87.20
35700;DHT22;21818;51.078;12.108;2024-01-25T01:00:10;14.70;87.20
35700;DHT22;21818;51.078;12.108;2024-01-25T01:02:39;14.70;87.20
35700;DHT22;21818;51.078;12.108;2024-01-25T01:05:08;14.70;87.20
35700;DHT22;21818;51.078;12.108;2024-01-25T01:07:33;14.70;87.20
35700;DHT22;21818;51.078;12.108;2024-01-25T01:09:59;14.70;87.30
35700;DHT22;21818;51.078;12.108;2024-01-25T01:12:25;14.70;87.30
35700;DHT22;21818;51.078;12.108;2024-01-25T01:14:50;14.70;87.40
35700;DHT22;21818;51.078;12.108;2024-01-25T01:17:16;14.70;87.40
35700;DHT22;21818;51.078;12.108;2024-01-25T01:19:43;14.70;87.60
35700;DHT22;21818;51.078;12.108;2024-01-25T01:22:09;14.70;87.60
35700;DHT22;21818;51.078;12.108;2024-01-25T01:24:34;14.70;87.60
35700;DHT22;21818;51.078;12.108;2024-01-25T01:27:00;14.70;87.60
35700;DHT22;21818;51.078;12.108;2024-01-25T01:29:26;14.70;87.80
35700;DHT22;21818;51.078;12.108;2024-01-25T01:31:52;14.70;87.70
35700;DHT22;21818;51.078;12.108;2024-01-25T01:34:17;14.70;87.80
35700;DHT22;21818;51.078;12.108;2024-01-25T01:36:43;14.70;87.80
35700;DHT22;21818;51.078;12.108;2024-01-25T01:39:09;14.60;87.80
35700;DHT22;21818;51.078;12.108;2024-01-25T01:41:35;14.70;87.90
35700;DHT22;21818;51.078;12.108;2024-01-25T01:44:00;14.70;87.90
35700;DHT22;21818;51.078;12.108;2024-01-25T01:46:36;14.60;87.90
35700;DHT22;21818;51.078;12.108;2024-01-25T01:49:13;14.70;88.20
35700;DHT22;21818;51.078;12.108;2024-01-25T01:51:40;14.70;88.20
35700;DHT22;21818;51.078;12.108;2024-01-25T01:54:07;14.70;88.10
35700;DHT22;21818;51.078;12.108;2024-01-25T01:56:33;14.60;88.10
35700;DHT22;21818;51.078;12.108;2024-01-25T01:59:04;14.60;88.20
35700;DHT22;21818;51.078;12.108;2024-01-25T02:01:30;14.70;88.30
35700;DHT22;21818;51.078;12.108;2024-01-25T02:03:56;14.70;88.30
35700;DHT22;21818;51.078;12.108;2024-01-25T02:06:23;14.60;88.30
35700;DHT22;21818;51.078;12.108;2024-01-25T02:08:49;14.70;88.50
35700;DHT22;21818;51.078;12.108;2024-01-25T02:11:17;14.70;88.50
35700;DHT22;21818;51.078;12.108;2024-01-25T02:13:42;14.70;88.60
35700;DHT22;21818;51.078;12.108;2024-01-25T02:16:08;14.70;88.70
35700;DHT22;21818;51.078;12.108;2024-01-25T02:18:34;14.60;88.70
35700;DHT22;21818;51.078;12.108;2024-01-25T02:21:00;14.60;88.80
35700;DHT22;21818;51.078;12.108;2024-01-25T02:23:26;14.60;88.80
35700;DHT22;21818;51.078;12.108;2024-01-25T02:25:51;14.60;88.90
35700;DHT22;21818;51.078;12.108;2024-01-25T02:28:17;14.60;88.90
35700;DHT22;21818;51.078;12.108;2024-01-25T02:30:43;14.60;89.00
35700;DHT22;21818;51.078;12.108;2024-01-25T02:33:08;14.60;89.00
35700;DHT22;21818;51.078;12.108;2024-01-25T02:35:34;14.60;89.00
35700;DHT22;21818;51.078;12.108;2024-01-25T02:37:59;14.60;89.10
35700;DHT22;21818;51.078;12.108;2024-01-25T02:40:25;14.60;89.10
35700;DHT22;21818;51.078;12.108;2024-01-25T02:42:51;14.60;89.10
35700;DHT22;21818;51.078;12.108;2024-01-25T02:45:16;14.60;89.10
35700;DHT22;21818;51.078;12.108;2024-01-25T02:47:42;14.60;89.10
35700;DHT22;21818;51.078;12.108;2024-01-25T02:50:08;14.60;89.10
35700;DHT22;21818;51.078;12.108;2024-01-25T02:52:34;14.60;89.10
35700;DHT22;21818;51.078;12.108;2024-01-25T02:54:59;14.60;89.10
35700;DHT22;21818;51.078;12.108;2024-01-25T02:57:25;14.60;89.10
35700;DHT22;21818;51.078;12.108;2024-01-25T02:59:51;14.60;89.10
35700;DHT22;21818;51.078;12.108;2024-01-25T03:02:17;14.60;89.00
35700;DHT22;21818;51.078;12.108;2024-01-25T03:04:45;14.60;89.10
35700;DHT22;21818;51.078;12.108;2024-01-25T03:07:10;14.60;89.20
35700;DHT22;21818;51.078;12.108;2024-01-25T03:09:36;14.60;89.20
35700;DHT22;21818;51.078;12.108;2024-01-25T03:12:01;14.60;89.10
35700;DHT22;21818;51.078;12.108;2024-01-25T03:14:27;14.60;89.10
35700;DHT22;21818;51.078;12.108;2024-01-25T03:16:53;14.60;89.10
35700;DHT22;21818;51.078;12.108;2024-01-25T03:19:18;14.60;89.10
35700;DHT22;21818;51.078;12.108;2024-01-25T03:21:44;14.60;89.20
35700;DHT22;21818;51.078;12.108;2024-01-25T03:24:09;14.60;89.40
35700;DHT22;21818;51.078;12.108;2024-01-25T03:26:35;14.60;89.50
35700;DHT22;21818;51.078;12.108;2024-01-25T03:29:00;14.60;89.40
35700;DHT22;21818;51.078;12.108;2024-01-25T03:31:26;14.70;89.50
35700;DHT22;21818;51.078;12.108;2024-01-25T03:33:51;14.60;89.40
35700;DHT22;21818;51.078;12.108;2024-01-25T03:36:17;14.60;89.50
35700;DHT22;21818;51.078;12.108;2024-01-25T03:38:43;14.60;89.50
35700;DHT22;21818;51.078;12.108;2024-01-25T03:41:08;14.60;89.50
35700;DHT22;21818;51.078;12.108;2024-01-25T03:43:34;14.60;89.60
35700;DHT22;21818;51.078;12.108;2024-01-25T03:46:00;14.60;89.60
35700;DHT22;21818;51.078;12.108;2024-01-25T03:48:26;14.60;89.70
35700;DHT22;21818;51.078;12.108;2024-01-25T03:50:51;14.60;89.70
35700;DHT22;21818;51.078;12.108;2024-01-25T03:53:22;14.60;89.80
35700;DHT22;21818;51.078;12.108;2024-01-25T03:55:47;14.60;89.80
35700;DHT22;21818;51.078;12.108;2024-01-25T03:58:15;14.60;89.80
35700;DHT22;21818;51.078;12.108;2024-01-25T04:00:40;14.60;89.80
35700;DHT22;21818;51.078;12.108;2024-01-25T04:03:06;14.60;89.80
35700;DHT22;21818;51.078;12.108;2024-01-25T04:05:31;14.60;89.90
35700;DHT22;21818;51.078;12.108;2024-01-25T04:07:57;14.50;89.90
35700;DHT22;21818;51.078;12.108;2024-01-25T04:10:22;14.50;89.90
35700;DHT22;21818;51.078;12.108;2024-01-25T04:12:48;14.50;89.90
35700;DHT22;21818;51.078;12.108;2024-01-25T04:15:13;14.50;89.90
35700;DHT22;21818;51.078;12.108;2024-01-25T04:17:39;14.50;90.00
35700;DHT22;21818;51.078;12.108;2024-01-25T04:20:05;14.50;90.00
35700;DHT22;21818;51.078;12.108;2024-01-25T04:22:31;14.50;90.20
35700;DHT22;21818;51.078;12.108;2024-01-25T04:24:56;14.50;90.00
35700;DHT22;21818;51.078;12.108;2024-01-25T04:27:22;14.50;90.00
35700;DHT22;21818;51.078;12.108;2024-01-25T04:29:47;14.50;90.00
35700;DHT22;21818;51.078;12.108;2024-01-25T04:32:13;14.50;90.00
35700;DHT22;21818;51.078;12.108;2024-01-25T04:34:39;14.50;90.10
35700;DHT22;21818;51.078;12.108;2024-01-25T04:37:04;14.50;90.10
35700;DHT22;21818;51.078;12.108;2024-01-25T04:39:30;14.50;90.10
35700;DHT22;21818;51.078;12.108;2024-01-25T04:41:55;14.50;90.10
35700;DHT22;21818;51.078;12.108;2024-01-25T04:44:21;14.50;90.10
35700;DHT22;21818;51.078;12.108;2024-01-25T04:46:46;14.50;90.10
35700;DHT22;21818;51.078;12.108;2024-01-25T04:49:12;14.50;90.10
35700;DHT22;21818;51.078;12.108;2024-01-25T04:51:37;14.50;90.20
35700;DHT22;21818;51.078;12.108;2024-01-25T04:54:03;14.40;90.20
35700;DHT22;21818;51.078;12.108;2024-01-25T04:56:29;14.40;90.20
35700;DHT22;21818;51.078;12.108;2024-01-25T04:58:54;14.40;90.20
35700;DHT22;21818;51.078;12.108;2024-01-25T05:01:20;14.40;90.20
35700;DHT22;21818;51.078;12.108;2024-01-25T05:03:46;14.40;90.20
35700;DHT22;21818;51.078;12.108;2024-01-25T05:06:11;14.40;90.20
35700;DHT22;21818;51.078;12.108;2024-01-25T05:08:37;14.40;90.20
35700;DHT22;21818;51.078;12.108;2024-01-25T05:11:02;14.40;90.30
35700;DHT22;21818;51.078;12.108;2024-01-25T05:13:28;14.40;90.30
35700;DHT22;21818;51.078;12.108;2024-01-25T05:15:53;14.50;90.20
35700;DHT22;21818;51.078;12.108;2024-01-25T05:18:19;14.50;90.20
35700;DHT22;21818;51.078;12.108;2024-01-25T05:20:45;14.50;90.20
35700;DHT22;21818;51.078;12.108;2024-01-25T05:23:10;14.50;90.20
35700;DHT22;21818;51.078;12.108;2024-01-25T05:25:36;14.50;90.20
35700;DHT22;21818;51.078;12.108;2024-01-25T05:28:01;14.50;90.20
35700;DHT22;21818;51.078;12.108;2024-01-25T05:30:27;14.50;90.30
35700;DHT22;21818;51.078;12.108;2024-01-25T05:32:53;14.50;90.30
35700;DHT22;21818;51.078;12.108;2024-01-25T05:35:21;14.50;90.30
35700;DHT22;21818;51.078;12.108;2024-01-25T05:37:48;14.50;90.30
35700;DHT22;21818;51.078;12.108;2024-01-25T05:40:14;14.50;90.30
35700;DHT22;21818;51.078;12.108;2024-01-25T05:42:40;14.50;90.30
35700;DHT22;21818;51.078;12.108;2024-01-25T05:45:06;14.50;90.40
35700;DHT22;21818;51.078;12.108;2024-01-25T05:47:32;14.50;90.40
35700;DHT22;21818;51.078;12.108;2024-01-25T05:49:58;14.50;90.40
35700;DHT22;21818;51.078;12.108;2024-01-25T05:52:24;14.50;90.40
35700;DHT22;21818;51.078;12.108;2024-01-25T05:54:50;14.50;90.40
35700;DHT22;21818;51.078;12.108;2024-01-25T05:57:16;14.50;90.40
35700;DHT22;21818;51.078;12.108;2024-01-25T05:59:42;14.50;90.40
35700;DHT22;21818;51.078;12.108;2024-01-25T06:02:08;14.50;90.40
35700;DHT22;21818;51.078;12.108;2024-01-25T06:04:34;14.50;90.40
35700;DHT22;21818;51.078;12.108;2024-01-25T06:06:59;14.40;90.40
35700;DHT22;21818;51.078;12.108;2024-01-25T06:09:25;14.40;90.40
35700;DHT22;21818;51.078;12.108;2024-01-25T06:11:51;14.50;90.50
35700;DHT22;21818;51.078;12.108;2024-01-25T06:14:17;14.50;90.50
35700;DHT22;21818;51.078;12.108;2024-01-25T06:16:42;14.40;90.40
35700;DHT22;21818;51.078;12.108;2024-01-25T06:19:08;14.40;90.40
35700;DHT22;21818;51.078;12.108;2024-01-25T06:21:34;14.40;90.40
35700;DHT22;21818;51.078;12.108;2024-01-25T06:24:01;14.40;90.40
35700;DHT22;21818;51.078;12.108;2024-01-25T06:26:27;14.40;90.50
35700;DHT22;21818;51.078;12.108;2024-01-25T06:28:52;14.40;90.50
35700;DHT22;21818;51.078;12.108;2024-01-25T06:31:18;14.40;90.50
35700;DHT22;21818;51.078;12.108;2024-01-25T06:33:43;14.40;90.50
35700;DHT22;21818;51.078;12.108;2024-01-25T06:36:12;14.40;90.50
35700;DHT22;21818;51.078;12.108;2024-01-25T06:38:40;14.40;90.50
35700;DHT22;21818;51.078;12.108;2024-01-25T06:41:06;14.40;90.50
35700;DHT22;21818;51.078;12.108;2024-01-25T06:43:31;14.40;90.50
35700;DHT22;21818;51.078;12.108;2024-01-25T06:45:57;14.40;90.50
35700;DHT22;21818;51.078;12.108;2024-01-25T06:48:22;14.40;90.50
35700;DHT22;21818;51.078;12.108;2024-01-25T06:50:48;14.40;90.50
35700;DHT22;21818;51.078;12.108;2024-01-25T06:53:16;14.40;90.50
35700;DHT22;21818;51.078;12.108;2024-01-25T06:55:41;14.40;90.50
35700;DHT22;21818;51.078;12.108;2024-01-25T06:58:07;14.40;90.50
35700;DHT22;21818;51.078;12.108;2024-01-25T07:00:32;14.40;90.50
35700;DHT22;21818;51.078;12.108;2024-01-25T07:02:58;14.50;90.60
35700;DHT22;21818;51.078;12.108;2024-01-25T07:05:23;14.50;90.60
35700;DHT22;21818;51.078;12.108;2024-01-25T07:07:49;14.50;90.60
35700;DHT22;21818;51.078;12.108;2024-01-25T07:10:15;14.50;90.60
35700;DHT22;21818;51.078;12.108;2024-01-25T07:12:41;14.50;90.60
35700;DHT22;21818;51.078;12.108;2024-01-25T07:15:06;14.50;90.70
35700;DHT22;21818;51.078;12.108;2024-01-25T07:17:32;14.50;90.70
35700;DHT22;21818;51.078;12.108;2024-01-25T07:19:58;14.40;90.70
35700;DHT22;21818;51.078;12.108;2024-01-25T07:22:23;14.50;90.80
35700;DHT22;21818;51.078;12.108;2024-01-25T07:24:49;14.40;90.70
35700;DHT22;21818;51.078;12.108;2024-01-25T07:27:15;14.40;87.90
35700;DHT22;21818;51.078;12.108;2024-01-25T07:29:46;13.10;84.20
35700;DHT22;21818;51.078;12.108;2024-01-25T07:32:12;12.00;85.40
35700;DHT22;21818;51.078;12.108;2024-01-25T07:34:37;11.00;87.10
35700;DHT22;21818;51.078;12.108;2024-01-25T07:37:04;10.70;90.50
35700;DHT22;21818;51.078;12.108;2024-01-25T07:39:29;11.40;91.00
35700;DHT22;21818;51.078;12.108;2024-01-25T07:41:55;12.20;90.50
35700;DHT22;21818;51.078;12.108;2024-01-25T07:44:20;12.70;90.00
35700;DHT22;21818;51.078;12.108;2024-01-25T07:46:46;13.10;89.10
35700;DHT22;21818;51.078;12.108;2024-01-25T07:49:12;13.40;88.50
35700;DHT22;21818;51.078;12.108;2024-01-25T07:51:38;13.60;88.10
35700;DHT22;21818;51.078;12.108;2024-01-25T07:54:03;13.70;87.90
35700;DHT22;21818;51.078;12.108;2024-01-25T07:56:29;13.80;87.70
35700;DHT22;21818;51.078;12.108;2024-01-25T07:58:55;13.90;87.50
35700;DHT22;21818;51.078;12.108;2024-01-25T08:01:20;14.00;87.40
35700;DHT22;21818;51.078;12.108;2024-01-25T08:03:46;14.00;87.30
35700;DHT22;21818;51.078;12.108;2024-01-25T08:06:12;14.10;87.30
35700;DHT22;21818;51.078;12.108;2024-01-25T08:08:38;14.10;87.30
35700;DHT22;21818;51.078;12.108;2024-01-25T08:11:03;14.20;87.20
35700;DHT22;21818;51.078;12.108;2024-01-25T08:13:33;14.20;87.20
35700;DHT22;21818;51.078;12.108;2024-01-25T08:15:59;14.20;87.10
35700;DHT22;21818;51.078;12.108;2024-01-25T08:18:25;14.20;87.10
35700;DHT22;21818;51.078;12.108;2024-01-25T08:20:52;14.20;87.10
35700;DHT22;21818;51.078;12.108;2024-01-25T08:23:18;14.20;87.10
35700;DHT22;21818;51.078;12.108;2024-01-25T08:25:44;14.20;87.50
35700;DHT22;21818;51.078;12.108;2024-01-25T08:28:10;14.20;86.90
35700;DHT22;21818;51.078;12.108;2024-01-25T08:30:35;14.20;86.90
35700;DHT22;21818;51.078;12.108;2024-01-25T08:33:01;14.20;86.80
35700;DHT22;21818;51.078;12.108;2024-01-25T08:35:26;14.20;86.80
35700;DHT22;21818;51.078;12.108;2024-01-25T08:37:52;14.20;86.70
35700;DHT22;21818;51.078;12.108;2024-01-25T08:40:17;14.20;87.20
35700;DHT22;21818;51.078;12.108;2024-01-25T08:42:43;14.20;86.60
35700;DHT22;21818;51.078;12.108;2024-01-25T08:45:09;14.20;86.60
35700;DHT22;21818;51.078;12.108;2024-01-25T08:47:37;14.20;86.50
35700;DHT22;21818;51.078;12.108;2024-01-25T08:50:03;14.20;86.50
35700;DHT22;21818;51.078;12.108;2024-01-25T08:52:31;14.20;86.50
35700;DHT22;21818;51.078;12.108;2024-01-25T08:54:56;14.30;86.40
35700;DHT22;21818;51.078;12.108;2024-01-25T08:57:22;14.20;86.30
35700;DHT22;21818;51.078;12.108;2024-01-25T08:59:47;14.30;86.30
35700;DHT22;21818;51.078;12.108;2024-01-25T09:02:13;14.20;86.30
35700;DHT22;21818;51.078;12.108;2024-01-25T09:04:39;14.20;86.30
35700;DHT22;21818;51.078;12.108;2024-01-25T09:07:08;14.30;86.30
35700;DHT22;21818;51.078;12.108;2024-01-25T09:09:34;14.30;86.30
35700;DHT22;21818;51.078;12.108;2024-01-25T09:11:59;14.30;86.20
35700;DHT22;21818;51.078;12.108;2024-01-25T09:14:25;14.30;86.10
35700;DHT22;21818;51.078;12.108;2024-01-25T09:16:50;14.30;86.10
35700;DHT22;21818;51.078;12.108;2024-01-25T09:19:16;14.40;86.10
35700;DHT22;21818;51.078;12.108;2024-01-25T09:21:42;14.40;86.00
35700;DHT22;21818;51.078;12.108;2024-01-25T09:24:07;14.40;85.90
35700;DHT22;21818;51.078;12.108;2024-01-25T09:26:33;14.40;85.90
35700;DHT22;21818;51.078;12.108;2024-01-25T09:28:59;14.40;85.90
35700;DHT22;21818;51.078;12.108;2024-01-25T09:31:24;14.40;85.90
35700;DHT22;21818;51.078;12.108;2024-01-25T09:33:50;14.50;85.90
35700;DHT22;21818;51.078;12.108;2024-01-25T09:36:16;14.40;85.90
35700;DHT22;21818;51.078;12.108;2024-01-25T09:38:42;14.40;85.90
35700;DHT22;21818;51.078;12.108;2024-01-25T09:41:08;14.40;85.90
35700;DHT22;21818;51.078;12.108;2024-01-25T09:43:33;14.40;85.90
35700;DHT22;21818;51.078;12.108;2024-01-25T09:46:00;14.40;85.80
35700;DHT22;21818;51.078;12.108;2024-01-25T09:48:26;14.50;85.80
35700;DHT22;21818;51.078;12.108;2024-01-25T09:50:55;14.40;85.80
35700;DHT22;21818;51.078;12.108;2024-01-25T09:53:24;14.50;85.80
35700;DHT22;21818;51.078;12.108;2024-01-25T09:56:16;14.50;85.70
35700;DHT22;21818;51.078;12.108;2024-01-25T09:58:43;14.50;85.70
35700;DHT22;21818;51.078;12.108;2024-01-25T10:01:13;14.50;85.60
35700;DHT22;21818;51.078;12.108;2024-01-25T10:03:42;14.40;85.50
35700;DHT22;21818;51.078;12.108;2024-01-25T10:06:08;14.50;85.50
35700;DHT22;21818;51.078;12.108;2024-01-25T10:08:34;14.40;85.30
35700;DHT22;21818;51.078;12.108;2024-01-25T10:11:00;14.50;85.30
35700;DHT22;21818;51.078;12.108;2024-01-25T10:13:28;14.40;85.20
35700;DHT22;21818;51.078;12.108;2024-01-25T10:15:54;14.40;85.20
35700;DHT22;21818;51.078;12.108;2024-01-25T10:18:22;14.40;85.30
35700;DHT22;21818;51.078;12.108;2024-01-25T10:20:48;14.40;85.30
35700;DHT22;21818;51.078;12.108;2024-01-25T10:23:13;14.40;85.20
35700;DHT22;21818;51.078;12.108;2024-01-25T10:25:39;14.40;85.10
35700;DHT22;21818;51.078;12.108;2024-01-25T10:28:05;14.40;84.90
35700;DHT22;21818;51.078;12.108;2024-01-25T10:30:33;14.50;84.80
35700;DHT22;21818;51.078;12.108;2024-01-25T10:32:59;14.50;84.70
35700;DHT22;21818;51.078;12.108;2024-01-25T10:35:28;14.60;84.60
35700;DHT22;21818;51.078;12.108;2024-01-25T10:37:55;14.50;84.60
35700;DHT22;21818;51.078;12.108;2024-01-25T10:40:21;14.50;84.60
35700;DHT22;21818;51.078;12.108;2024-01-25T10:42:47;14.50;84.50
35700;DHT22;21818;51.078;12.108;2024-01-25T10:45:13;14.50;84.40
35700;DHT22;21818;51.078;12.108;2024-01-25T10:47:39;14.50;84.50
35700;DHT22;21818;51.078;12.108;2024-01-25T10:50:11;14.50;84.50
35700;DHT22;21818;51.078;12.108;2024-01-25T10:52:39;14.50;84.50
35700;DHT22;21818;51.078;12.108;2024-01-25T10:55:05;14.50;84.50
35700;DHT22;21818;51.078;12.108;2024-01-25T10:57:37;14.60;84.40
35700;DHT22;21818;51.078;12.108;2024-01-25T11:00:09;14.60;84.40
35700;DHT22;21818;51.078;12.108;2024-01-25T11:02:35;14.60;84.30
35700;DHT22;21818;51.078;12.108;2024-01-25T11:05:01;14.60;84.20
35700;DHT22;21818;51.078;12.108;2024-01-25T11:07:28;14.60;84.00
35700;DHT22;21818;51.078;12.108;2024-01-25T11:09:55;14.60;83.90
35700;DHT22;21818;51.078;12.108;2024-01-25T11:12:20;14.70;83.90
35700;DHT22;21818;51.078;12.108;2024-01-25T11:14:54;14.60;83.70
35700;DHT22;21818;51.078;12.108;2024-01-25T11:17:22;14.60;83.80
35700;DHT22;21818;51.078;12.108;2024-01-25T11:19:51;14.70;83.70
35700;DHT22;21818;51.078;12.108;2024-01-25T11:22:16;14.70;83.50
35700;DHT22;21818;51.078;12.108;2024-01-25T11:24:42;14.80;83.40
35700;DHT22;21818;51.078;12.108;2024-01-25T11:27:09;14.80;83.30
35700;DHT22;21818;51.078;12.108;2024-01-25T11:29:35;14.80;83.10
35700;DHT22;21818;51.078;12.108;2024-01-25T11:32:03;14.80;83.10
35700;DHT22;21818;51.078;12.108;2024-01-25T11:34:29;14.80;83.10
35700;DHT22;21818;51.078;12.108;2024-01-25T11:36:57;14.80;83.10
35700;DHT22;21818;51.078;12.108;2024-01-25T11:39:23;14.80;83.20
35700;DHT22;21818;51.078;12.108;2024-01-25T11:41:51;14.80;83.00
35700;DHT22;21818;51.078;12.108;2024-01-25T11:44:17;14.90;82.90
35700;DHT22;21818;51.078;12.108;2024-01-25T11:46:43;14.90;82.90
35700;DHT22;21818;51.078;12.108;2024-01-25T11:49:08;14.90;82.80
35700;DHT22;21818;51.078;12.108;2024-01-25T11:51:34;14.90;82.70
35700;DHT22;21818;51.078;12.108;2024-01-25T11:53:59;14.90;82.50
35700;DHT22;21818;51.078;12.108;2024-01-25T11:56:30;15.00;82.50
35700;DHT22;21818;51.078;12.108;2024-01-25T11:58:57;15.00;82.20
35700;DHT22;21818;51.078;12.108;2024-01-25T12:01:26;15.10;82.10
35700;DHT22;21818;51.078;12.108;2024-01-25T12:03:53;15.20;82.00
35700;DHT22;21818;51.078;12.108;2024-01-25T12:06:19;15.20;81.80
35700;DHT22;21818;51.078;12.108;2024-01-25T12:08:45;15.20;81.70
35700;DHT22;21818;51.078;12.108;2024-01-25T12:11:14;15.20;81.50
35700;DHT22;21818;51.078;12.108;2024-01-25T12:13:41;15.30;81.40
35700;DHT22;21818;51.078;12.108;2024-01-25T12:16:08;15.30;81.30
35700;DHT22;21818;51.078;12.108;2024-01-25T12:18:34;15.30;81.30
35700;DHT22;21818;51.078;12.108;2024-01-25T12:21:02;15.30;81.20
35700;DHT22;21818;51.078;12.108;2024-01-25T12:23:32;15.40;81.20
35700;DHT22;21818;51.078;12.108;2024-01-25T12:26:00;15.40;81.00
35700;DHT22;21818;51.078;12.108;2024-01-25T12:28:27;15.40;81.10
35700;DHT22;21818;51.078;12.108;2024-01-25T12:30:53;15.40;81.10
35700;DHT22;21818;51.078;12.108;2024-01-25T12:33:19;15.40;81.10
35700;DHT22;21818;51.078;12.108;2024-01-25T12:35:44;15.40;81.20
35700;DHT22;21818;51.078;12.108;2024-01-25T12:38:10;15.30;81.10
35700;DHT22;21818;51.078;12.108;2024-01-25T12:40:35;15.30;81.10
35700;DHT22;21818;51.078;12.108;2024-01-25T12:43:01;15.30;81.10
35700;DHT22;21818;51.078;12.108;2024-01-25T12:45:27;15.30;81.10
35700;DHT22;21818;51.078;12.108;2024-01-25T12:47:52;15.30;81.00
35700;DHT22;21818;51.078;12.108;2024-01-25T12:50:18;15.30;81.00
35700;DHT22;21818;51.078;12.108;2024-01-25T12:52:43;15.30;80.90
35700;DHT22;21818;51.078;12.108;2024-01-25T12:55:09;15.40;80.90
35700;DHT22;21818;51.078;12.108;2024-01-25T12:57:34;15.50;80.60
35700;DHT22;21818;51.078;12.108;2024-01-25T13:00:00;15.60;80.40
35700;DHT22;21818;51.078;12.108;2024-01-25T13:02:26;15.70;80.20
35700;DHT22;21818;51.078;12.108;2024-01-25T13:04:51;15.60;80.10
35700;DHT22;21818;51.078;12.108;2024-01-25T13:07:17;15.60;80.20
35700;DHT22;21818;51.078;12.108;2024-01-25T13:09:42;15.60;80.20
35700;DHT22;21818;51.078;12.108;2024-01-25T13:12:08;15.70;80.10
35700;DHT22;21818;51.078;12.108;2024-01-25T13:14:34;15.60;79.80
35700;DHT22;21818;51.078;12.108;2024-01-25T13:16:59;15.60;79.90
35700;DHT22;21818;51.078;12.108;2024-01-25T13:19:25;15.50;79.90
35700;DHT22;21818;51.078;12.108;2024-01-25T13:21:50;15.50;79.90
35700;DHT22;21818;51.078;12.108;2024-01-25T13:24:17;15.60;79.90
35700;DHT22;21818;51.078;12.108;2024-01-25T13:26:43;15.60;79.70
35700;DHT22;21818;51.078;12.108;2024-01-25T13:29:09;15.60;79.60
35700;DHT22;21818;51.078;12.108;2024-01-25T13:31:39;15.50;79.40
35700;DHT22;21818;51.078;12.108;2024-01-25T13:34:04;15.40;79.50
35700;DHT22;21818;51.078;12.108;2024-01-25T13:36:30;15.40;79.60
35700;DHT22;21818;51.078;12.108;2024-01-25T13:38:55;15.30;79.60
35700;DHT22;21818;51.078;12.108;2024-01-25T13:41:21;15.20;79.70
35700;DHT22;21818;51.078;12.108;2024-01-25T13:43:46;15.20;79.80
35700;DHT22;21818;51.078;12.108;2024-01-25T13:46:12;15.20;79.70
35700;DHT22;21818;51.078;12.108;2024-01-25T13:48:38;15.20;79.70
35700;DHT22;21818;51.078;12.108;2024-01-25T13:51:03;15.20;79.70
35700;DHT22;21818;51.078;12.108;2024-01-25T13:53:29;15.20;79.70
35700;DHT22;21818;51.078;12.108;2024-01-25T13:55:54;15.20;79.60
35700;DHT22;21818;51.078;12.108;2024-01-25T13:58:20;15.10;79.70
35700;DHT22;21818;51.078;12.108;2024-01-25T14:00:46;15.10;79.80
35700;DHT22;21818;51.078;12.108;2024-01-25T14:03:11;15.10;79.80
35700;DHT22;21818;51.078;12.108;2024-01-25T14:05:37;15.00;79.80
35700;DHT22;21818;51.078;12.108;2024-01-25T14:08:03;15.00;80.00
35700;DHT22;21818;51.078;12.108;2024-01-25T14:10:28;14.90;80.00
35700;DHT22;21818;51.078;12.108;2024-01-25T14:12:55;14.90;80.10
35700;DHT22;21818;51.078;12.108;2024-01-25T14:15:21;14.90;80.10
35700;DHT22;21818;51.078;12.108;2024-01-25T14:17:47;14.90;80.20
35700;DHT22;21818;51.078;12.108;2024-01-25T14:20:12;14.90;80.10
35700;DHT22;21818;51.078;12.108;2024-01-25T14:22:38;14.90;80.10
35700;DHT22;21818;51.078;12.108;2024-01-25T14:25:04;14.90;80.10
35700;DHT22;21818;51.078;12.108;2024-01-25T14:27:30;14.90;80.10
35700;DHT22;21818;51.078;12.108;2024-01-25T14:29:55;14.90;80.10
35700;DHT22;21818;51.078;12.108;2024-01-25T14:32:21;14.90;80.10
35700;DHT22;21818;51.078;12.108;2024-01-25T14:34:47;14.80;80.10
35700;DHT22;21818;51.078;12.108;2024-01-25T14:37:13;14.80;80.20
35700;DHT22;21818;51.078;12.108;2024-01-25T14:39:38;14.80;80.30
35700;DHT22;21818;51.078;12.108;2024-01-25T14:42:09;14.80;80.30
35700;DHT22;21818;51.078;12.108;2024-01-25T14:44:36;14.80;80.20
35700;DHT22;21818;51.078;12.108;2024-01-25T14:47:01;14.80;80.20
35700;DHT22;21818;51.078;12.108;2024-01-25T14:49:27;14.80;80.20
35700;DHT22;21818;51.078;12.108;2024-01-25T14:51:52;14.80;80.20
35700;DHT22;21818;51.078;12.108;2024-01-25T14:54:18;14.80;80.20
35700;DHT22;21818;51.078;12.108;2024-01-25T14:56:44;14.80;80.20
35700;DHT22;21818;51.078;12.108;2024-01-25T14:59:09;14.80;80.20
35700;DHT22;21818;51.078;12.108;2024-01-25T15:01:35;14.80;80.20
35700;DHT22;21818;51.078;12.108;2024-01-25T15:04:01;14.80;80.20
35700;DHT22;21818;51.078;12.108;2024-01-25T15:06:26;14.80;80.20
35700;DHT22;21818;51.078;12.108;2024-01-25T15:08:52;14.70;80.30